sensor_id;sensor_type;location;lat;lon;timestamp;pressure;altitude;pressure_sealevel;temperature;humidity
56558;BME280;43358;50.356;12.456;2023-02-04T00:00:27;96038;;;2.5;96.3
56558;BME280;43358;50.356;12.456;2023-02-04T00:01:29;96034;;;2.5;96.3
56558;BME280;43358;50.356;12.456;2023-02-04T00:02:32;96032;;;2.5;96.5
56558;BME280;43358;50.356;12.456;2023-02-04T00:05:38;96037;;;2.4;97
56558;BME280;43358;50.356;12.456;2023-02-04T00:06:40;96038;;;2.4;97
56558;BME280;43358;50.356;12.456;2023-02-04T00:07:42;96037;;;2.4;97
56558;BME280;43358;50.356;12.456;2023-02-04T00:08:45;96036;;;2.4;97.1
56558;BME280;43358;50.356;12.456;2023-02-04T00:09:49;96040;;;2.4;97.3
56558;BME280;43358;50.356;12.456;2023-02-04T00:10:51;96030;;;2.4;97.4
56558;BME280;43358;50.356;12.456;2023-02-04T00:11:53;96042;;;2.3;97.7
56558;BME280;43358;50.356;12.456;2023-02-04T00:12:55;96036;;;2.3;97.9
56558;BME280;43358;50.356;12.456;2023-02-04T00:13:57;96048;;;2.3;98.1
56558;BME280;43358;50.356;12.456;2023-02-04T00:14:59;96039;;;2.3;98.1
56558;BME280;43358;50.356;12.456;2023-02-04T00:16:01;96045;;;2.3;98.1
56558;BME280;43358;50.356;12.456;2023-02-04T00:17:04;96042;;;2.2;98.3
56558;BME280;43358;50.356;12.456;2023-02-04T00:18:06;96048;;;2.2;98.4
56558;BME280;43358;50.356;12.456;2023-02-04T00:19:08;96054;;;2.2;98.5
56558;BME280;43358;50.356;12.456;2023-02-04T00:20:10;96058;;;2.2;98.6
56558;BME280;43358;50.356;12.456;2023-02-04T00:21:12;96050;;;2.2;98.7
56558;BME280;43358;50.356;12.456;2023-02-04T00:22:14;96048;;;2.2;98.7
56558;BME280;43358;50.356;12.456;2023-02-04T00:23:16;96059;;;2.2;98.5
56558;BME280;43358;50.356;12.456;2023-02-04T00:24:18;96053;;;2.2;98.6
56558;BME280;43358;50.356;12.456;2023-02-04T00:25:20;96063;;;2.2;98.8
56558;BME280;43358;50.356;12.456;2023-02-04T00:26:23;96058;;;2.2;98.8
56558;BME280;43358;50.356;12.456;2023-02-04T00:27:26;96061;;;2.2;98.8
56558;BME280;43358;50.356;12.456;2023-02-04T00:28:28;96061;;;2.2;98.8
56558;BME280;43358;50.356;12.456;2023-02-04T00:29:30;96063;;;2.2;98.8
56558;BME280;43358;50.356;12.456;2023-02-04T00:30:33;96063;;;2.1;98.8
56558;BME280;43358;50.356;12.456;2023-02-04T00:31:35;96069;;;2.2;98.8
56558;BME280;43358;50.356;12.456;2023-02-04T00:32:37;96064;;;2.2;98.8
56558;BME280;43358;50.356;12.456;2023-02-04T00:33:40;96063;;;2.2;98.8
56558;BME280;43358;50.356;12.456;2023-02-04T00:34:42;96066;;;2.2;98.8
56558;BME280;43358;50.356;12.456;2023-02-04T00:35:45;96068;;;2.2;98.8
56558;BME280;43358;50.356;12.456;2023-02-04T00:36:49;96071;;;2.1;98.8
56558;BME280;43358;50.356;12.456;2023-02-04T00:37:51;96074;;;2.2;98.8
56558;BME280;43358;50.356;12.456;2023-02-04T00:38:53;96070;;;2.2;98.8
56558;BME280;43358;50.356;12.456;2023-02-04T00:39:55;96069;;;2.2;98.8
56558;BME280;43358;50.356;12.456;2023-02-04T00:40:57;96070;;;2.1;98.8
56558;BME280;43358;50.356;12.456;2023-02-04T00:41:59;96079;;;2.1;98.8
56558;BME280;43358;50.356;12.456;2023-02-04T00:43:01;96071;;;2.1;98.8
56558;BME280;43358;50.356;12.456;2023-02-04T00:44:03;96077;;;2.1;98.8
56558;BME280;43358;50.356;12.456;2023-02-04T00:45:05;96076;;;2.1;98.8
56558;BME280;43358;50.356;12.456;2023-02-04T00:46:07;96083;;;2.1;98.8
56558;BME280;43358;50.356;12.456;2023-02-04T00:47:21;96071;;;2.1;98.8
56558;BME280;43358;50.356;12.456;2023-02-04T00:48:21;96062;;;2.2;98.8
56558;BME280;43358;50.356;12.456;2023-02-04T00:49:21;96069;;;2.1;98.8
56558;BME280;43358;50.356;12.456;2023-02-04T00:50:21;96070;;;2.1;98.8
56558;BME280;43358;50.356;12.456;2023-02-04T00:51:21;96069;;;2.1;98.8
56558;BME280;43358;50.356;12.456;2023-02-04T00:52:21;96072;;;2.1;98.8
56558;BME280;43358;50.356;12.456;2023-02-04T00:53:23;96075;;;2.1;98.8
56558;BME280;43358;50.356;12.456;2023-02-04T00:54:25;96081;;;2.1;98.8
56558;BME280;43358;50.356;12.456;2023-02-04T00:55:28;96083;;;2.1;98.8
56558;BME280;43358;50.356;12.456;2023-02-04T00:56:30;96085;;;2.1;98.8
56558;BME280;43358;50.356;12.456;2023-02-04T00:57:32;96081;;;2.1;98.8
56558;BME280;43358;50.356;12.456;2023-02-04T00:58:34;96085;;;2.1;98.8
56558;BME280;43358;50.356;12.456;2023-02-04T00:59:37;96082;;;2.1;98.8
56558;BME280;43358;50.356;12.456;2023-02-04T01:00:39;96093;;;2.1;98.8
56558;BME280;43358;50.356;12.456;2023-02-04T01:01:41;96090;;;2.1;98.8
56558;BME280;43358;50.356;12.456;2023-02-04T01:02:43;96080;;;2.1;98.8
56558;BME280;43358;50.356;12.456;2023-02-04T01:03:45;96090;;;2.1;98.8
56558;BME280;43358;50.356;12.456;2023-02-04T01:04:49;96095;;;2.1;98.8
56558;BME280;43358;50.356;12.456;2023-02-04T01:05:51;96092;;;2.1;98.8
56558;BME280;43358;50.356;12.456;2023-02-04T01:06:53;96097;;;2.1;98.8
56558;BME280;43358;50.356;12.456;2023-02-04T01:07:55;96095;;;2.1;98.8
56558;BME280;43358;50.356;12.456;2023-02-04T01:08:58;96098;;;2.1;98.8
56558;BME280;43358;50.356;12.456;2023-02-04T01:10:00;96100;;;2.1;98.8
56558;BME280;43358;50.356;12.456;2023-02-04T01:11:02;96099;;;2.1;98.8
56558;BME280;43358;50.356;12.456;2023-02-04T01:12:04;96101;;;2.1;98.8
56558;BME280;43358;50.356;12.456;2023-02-04T01:13:07;96105;;;2.1;98.8
56558;BME280;43358;50.356;12.456;2023-02-04T01:14:09;96108;;;2.1;98.8
56558;BME280;43358;50.356;12.456;2023-02-04T01:15:11;96111;;;2.1;98.8
56558;BME280;43358;50.356;12.456;2023-02-04T01:16:13;96103;;;2;98.8
56558;BME280;43358;50.356;12.456;2023-02-04T01:17:15;96109;;;2;98.8
56558;BME280;43358;50.356;12.456;2023-02-04T01:18:17;96102;;;2;98.8
56558;BME280;43358;50.356;12.456;2023-02-04T01:19:19;96103;;;2;98.8
56558;BME280;43358;50.356;12.456;2023-02-04T01:20:21;96104;;;2;98.8
56558;BME280;43358;50.356;12.456;2023-02-04T01:21:23;96105;;;2;98.8
56558;BME280;43358;50.356;12.456;2023-02-04T01:22:25;96100;;;2;98.8
56558;BME280;43358;50.356;12.456;2023-02-04T01:23:27;96103;;;2;98.8
56558;BME280;43358;50.356;12.456;2023-02-04T01:24:29;96105;;;2;98.8
56558;BME280;43358;50.356;12.456;2023-02-04T01:25:31;96105;;;2;98.8
56558;BME280;43358;50.356;12.456;2023-02-04T01:26:33;96106;;;2;98.8
56558;BME280;43358;50.356;12.456;2023-02-04T01:27:36;96107;;;2;98.8
56558;BME280;43358;50.356;12.456;2023-02-04T01:28:38;96109;;;2;98.8
56558;BME280;43358;50.356;12.456;2023-02-04T01:29:40;96117;;;2;98.8
56558;BME280;43358;50.356;12.456;2023-02-04T01:30:42;96113;;;2;98.8
56558;BME280;43358;50.356;12.456;2023-02-04T01:31:45;96117;;;2;98.8
56558;BME280;43358;50.356;12.456;2023-02-04T01:32:48;96117;;;2;98.8
56558;BME280;43358;50.356;12.456;2023-02-04T01:33:50;96118;;;2;98.8
56558;BME280;43358;50.356;12.456;2023-02-04T01:34:53;96116;;;2;98.8
56558;BME280;43358;50.356;12.456;2023-02-04T01:35:55;96119;;;2;98.8
56558;BME280;43358;50.356;12.456;2023-02-04T01:36:57;96116;;;2;98.8
56558;BME280;43358;50.356;12.456;2023-02-04T01:37:59;96112;;;2;98.8
56558;BME280;43358;50.356;12.456;2023-02-04T01:39:01;96114;;;2;98.8
56558;BME280;43358;50.356;12.456;2023-02-04T01:40:03;96108;;;2;98.8
56558;BME280;43358;50.356;12.456;2023-02-04T01:41:06;96119;;;2;98.8
56558;BME280;43358;50.356;12.456;2023-02-04T01:42:08;96119;;;2;98.8
56558;BME280;43358;50.356;12.456;2023-02-04T01:43:10;96135;;;2;98.8
56558;BME280;43358;50.356;12.456;2023-02-04T01:44:13;96135;;;2;98.8
56558;BME280;43358;50.356;12.456;2023-02-04T01:45:15;96142;;;2;98.8
56558;BME280;43358;50.356;12.456;2023-02-04T01:46:17;96161;;;2;98.8
56558;BME280;43358;50.356;12.456;2023-02-04T01:47:19;96180;;;2;98.8
56558;BME280;43358;50.356;12.456;2023-02-04T01:48:21;96203;;;2;98.8
56558;BME280;43358;50.356;12.456;2023-02-04T01:49:24;96214;;;2.1;98.8
56558;BME280;43358;50.356;12.456;2023-02-04T01:50:26;96220;;;2.1;98.8
56558;BME280;43358;50.356;12.456;2023-02-04T01:51:28;96223;;;2.1;98.8
56558;BME280;43358;50.356;12.456;2023-02-04T01:52:33;96223;;;2;98.8
56558;BME280;43358;50.356;12.456;2023-02-04T01:53:33;96234;;;2;98.8
56558;BME280;43358;50.356;12.456;2023-02-04T01:54:35;96230;;;2;98.1
56558;BME280;43358;50.356;12.456;2023-02-04T01:56:22;96228;;;1.9;97
56558;BME280;43358;50.356;12.456;2023-02-04T01:57:21;96235;;;1.9;96.8
56558;BME280;43358;50.356;12.456;2023-02-04T01:58:45;96227;;;1.8;96.9
56558;BME280;43358;50.356;12.456;2023-02-04T02:00:50;96231;;;1.7;97.1
56558;BME280;43358;50.356;12.456;2023-02-04T02:01:52;96236;;;1.7;97.6
56558;BME280;43358;50.356;12.456;2023-02-04T02:03:57;96236;;;1.6;97.9
56558;BME280;43358;50.356;12.456;2023-02-04T02:04:59;96241;;;1.6;97.1
56558;BME280;43358;50.356;12.456;2023-02-04T02:06:02;96239;;;1.6;97.1
56558;BME280;43358;50.356;12.456;2023-02-04T02:08:06;96246;;;1.5;97.6
56558;BME280;43358;50.356;12.456;2023-02-04T02:09:09;96240;;;1.5;97
56558;BME280;43358;50.356;12.456;2023-02-04T02:10:11;96252;;;1.5;97.1
56558;BME280;43358;50.356;12.456;2023-02-04T02:11:13;96257;;;1.5;97.7
56558;BME280;43358;50.356;12.456;2023-02-04T02:12:15;96250;;;1.5;97.8
56558;BME280;43358;50.356;12.456;2023-02-04T02:13:17;96258;;;1.5;97.9
56558;BME280;43358;50.356;12.456;2023-02-04T02:14:19;96262;;;1.4;97.7
56558;BME280;43358;50.356;12.456;2023-02-04T02:16:21;96257;;;1.4;97.2
56558;BME280;43358;50.356;12.456;2023-02-04T02:17:26;96272;;;1.4;97.7
56558;BME280;43358;50.356;12.456;2023-02-04T02:18:28;96257;;;1.4;97.6
56558;BME280;43358;50.356;12.456;2023-02-04T02:19:31;96292;;;1.4;97.6
56558;BME280;43358;50.356;12.456;2023-02-04T02:20:32;96262;;;1.3;97.9
56558;BME280;43358;50.356;12.456;2023-02-04T02:22:39;96274;;;1.3;97.8
56558;BME280;43358;50.356;12.456;2023-02-04T02:23:47;96280;;;1.2;97.9
56558;BME280;43358;50.356;12.456;2023-02-04T02:25:43;96278;;;1.2;97.9
56558;BME280;43358;50.356;12.456;2023-02-04T02:26:45;96279;;;1.2;97.5
56558;BME280;43358;50.356;12.456;2023-02-04T02:27:48;96271;;;1.2;98
56558;BME280;43358;50.356;12.456;2023-02-04T02:28:50;96296;;;1.1;98.3
56558;BME280;43358;50.356;12.456;2023-02-04T02:29:52;96298;;;1.1;98.5
56558;BME280;43358;50.356;12.456;2023-02-04T02:30:54;96281;;;1.1;98.5
56558;BME280;43358;50.356;12.456;2023-02-04T02:32:59;96291;;;1.1;98.6
56558;BME280;43358;50.356;12.456;2023-02-04T02:34:01;96293;;;1.1;98.8
56558;BME280;43358;50.356;12.456;2023-02-04T02:35:03;96312;;;1.1;98.8
56558;BME280;43358;50.356;12.456;2023-02-04T02:36:06;96313;;;1.1;98.5
56558;BME280;43358;50.356;12.456;2023-02-04T02:37:21;96297;;;1.1;97.6
56558;BME280;43358;50.356;12.456;2023-02-04T02:38:10;96293;;;1.1;97.3
56558;BME280;43358;50.356;12.456;2023-02-04T02:39:12;96292;;;1.1;96.9
56558;BME280;43358;50.356;12.456;2023-02-04T02:40:27;96296;;;1.1;96.7
56558;BME280;43358;50.356;12.456;2023-02-04T02:41:16;96307;;;1.1;97
56558;BME280;43358;50.356;12.456;2023-02-04T02:42:19;96300;;;1.1;97.2
56558;BME280;43358;50.356;12.456;2023-02-04T02:43:21;96316;;;1.1;97.5
56558;BME280;43358;50.356;12.456;2023-02-04T02:45:27;96313;;;1.1;96.2
56558;BME280;43358;50.356;12.456;2023-02-04T02:46:28;96311;;;1;97
56558;BME280;43358;50.356;12.456;2023-02-04T02:47:31;96322;;;1;97.4
56558;BME280;43358;50.356;12.456;2023-02-04T02:48:33;96319;;;1;97.7
56558;BME280;43358;50.356;12.456;2023-02-04T02:49:35;96323;;;1;98
56558;BME280;43358;50.356;12.456;2023-02-04T02:50:37;96327;;;1;98
56558;BME280;43358;50.356;12.456;2023-02-04T02:51:40;96328;;;1;98.1
56558;BME280;43358;50.356;12.456;2023-02-04T02:52:42;96332;;;1;98.1
56558;BME280;43358;50.356;12.456;2023-02-04T02:53:45;96333;;;1;97.6
56558;BME280;43358;50.356;12.456;2023-02-04T02:54:49;96335;;;1;97.1
56558;BME280;43358;50.356;12.456;2023-02-04T02:56:54;96324;;;1;96.8
56558;BME280;43358;50.356;12.456;2023-02-04T02:57:57;96335;;;1;96.8
56558;BME280;43358;50.356;12.456;2023-02-04T02:59:11;96334;;;1;97.3
56558;BME280;43358;50.356;12.456;2023-02-04T03:00:01;96331;;;1;97.8
56558;BME280;43358;50.356;12.456;2023-02-04T03:01:03;96345;;;1;98.1
56558;BME280;43358;50.356;12.456;2023-02-04T03:02:05;96352;;;1;97.9
56558;BME280;43358;50.356;12.456;2023-02-04T03:03:08;96355;;;1;97.8
56558;BME280;43358;50.356;12.456;2023-02-04T03:04:09;96343;;;1;97.9
56558;BME280;43358;50.356;12.456;2023-02-04T03:05:11;96345;;;0.9;98.1
56558;BME280;43358;50.356;12.456;2023-02-04T03:06:15;96346;;;1;98.1
56558;BME280;43358;50.356;12.456;2023-02-04T03:07:16;96347;;;0.9;97.5
56558;BME280;43358;50.356;12.456;2023-02-04T03:08:18;96347;;;0.9;97.7
56558;BME280;43358;50.356;12.456;2023-02-04T03:09:21;96346;;;0.9;97.8
56558;BME280;43358;50.356;12.456;2023-02-04T03:10:23;96348;;;0.9;97.5
56558;BME280;43358;50.356;12.456;2023-02-04T03:11:25;96353;;;0.9;97.7
56558;BME280;43358;50.356;12.456;2023-02-04T03:12:27;96355;;;0.9;98.2
56558;BME280;43358;50.356;12.456;2023-02-04T03:13:30;96364;;;0.9;98.3
56558;BME280;43358;50.356;12.456;2023-02-04T03:14:33;96383;;;0.9;98.5
56558;BME280;43358;50.356;12.456;2023-02-04T03:15:35;96372;;;0.9;97.6
56558;BME280;43358;50.356;12.456;2023-02-04T03:16:37;96371;;;0.9;97.5
56558;BME280;43358;50.356;12.456;2023-02-04T03:17:39;96373;;;0.9;96.9
56558;BME280;43358;50.356;12.456;2023-02-04T03:18:41;96369;;;0.9;97.1
56558;BME280;43358;50.356;12.456;2023-02-04T03:19:45;96387;;;0.9;97.6
56558;BME280;43358;50.356;12.456;2023-02-04T03:20:48;96375;;;0.9;98.4
56558;BME280;43358;50.356;12.456;2023-02-04T03:21:51;96388;;;0.9;97.8
56558;BME280;43358;50.356;12.456;2023-02-04T03:22:53;96391;;;0.9;97.9
56558;BME280;43358;50.356;12.456;2023-02-04T03:23:55;96394;;;0.9;98.5
56558;BME280;43358;50.356;12.456;2023-02-04T03:24:57;96403;;;0.8;98.5
56558;BME280;43358;50.356;12.456;2023-02-04T03:25:59;96409;;;0.8;98.4
56558;BME280;43358;50.356;12.456;2023-02-04T03:27:01;96413;;;0.8;98.8
56558;BME280;43358;50.356;12.456;2023-02-04T03:28:03;96415;;;0.8;98.5
56558;BME280;43358;50.356;12.456;2023-02-04T03:29:05;96404;;;0.8;97.9
56558;BME280;43358;50.356;12.456;2023-02-04T03:30:07;96406;;;0.8;98.1
56558;BME280;43358;50.356;12.456;2023-02-04T03:31:09;96404;;;0.8;98.4
56558;BME280;43358;50.356;12.456;2023-02-04T03:32:12;96413;;;0.8;98.4
56558;BME280;43358;50.356;12.456;2023-02-04T03:33:14;96410;;;0.8;98.4
56558;BME280;43358;50.356;12.456;2023-02-04T03:34:17;96414;;;0.8;98.4
56558;BME280;43358;50.356;12.456;2023-02-04T03:35:19;96415;;;0.7;98.6
56558;BME280;43358;50.356;12.456;2023-02-04T03:36:22;96437;;;0.8;98.6
56558;BME280;43358;50.356;12.456;2023-02-04T03:37:24;96420;;;0.8;98.6
56558;BME280;43358;50.356;12.456;2023-02-04T03:38:26;96425;;;0.8;97.8
56558;BME280;43358;50.356;12.456;2023-02-04T03:39:28;96431;;;0.8;97.7
56558;BME280;43358;50.356;12.456;2023-02-04T03:40:31;96424;;;0.8;97.7
56558;BME280;43358;50.356;12.456;2023-02-04T03:41:33;96429;;;0.8;97.4
56558;BME280;43358;50.356;12.456;2023-02-04T03:42:35;96431;;;0.8;97
56558;BME280;43358;50.356;12.456;2023-02-04T03:43:37;96436;;;0.8;97.2
56558;BME280;43358;50.356;12.456;2023-02-04T03:44:40;96430;;;0.7;97.2
56558;BME280;43358;50.356;12.456;2023-02-04T03:45:42;96445;;;0.7;97.3
56558;BME280;43358;50.356;12.456;2023-02-04T03:46:45;96442;;;0.7;97.5
56558;BME280;43358;50.356;12.456;2023-02-04T03:47:48;96446;;;0.7;97.6
56558;BME280;43358;50.356;12.456;2023-02-04T03:48:51;96439;;;0.8;97.1
56558;BME280;43358;50.356;12.456;2023-02-04T03:49:53;96441;;;0.7;96.8
56558;BME280;43358;50.356;12.456;2023-02-04T03:50:55;96439;;;0.7;96.7
56558;BME280;43358;50.356;12.456;2023-02-04T03:51:57;96444;;;0.7;97.2
56558;BME280;43358;50.356;12.456;2023-02-04T03:53:00;96445;;;0.7;97.1
56558;BME280;43358;50.356;12.456;2023-02-04T03:54:02;96457;;;0.7;96.8
56558;BME280;43358;50.356;12.456;2023-02-04T03:55:04;96456;;;0.7;97.2
56558;BME280;43358;50.356;12.456;2023-02-04T03:56:06;96475;;;0.7;97.3
56558;BME280;43358;50.356;12.456;2023-02-04T03:57:08;96467;;;0.7;97.3
56558;BME280;43358;50.356;12.456;2023-02-04T03:59:12;96478;;;0.8;97
56558;BME280;43358;50.356;12.456;2023-02-04T04:00:15;96487;;;0.7;96.7
56558;BME280;43358;50.356;12.456;2023-02-04T04:01:17;96478;;;0.7;96.6
56558;BME280;43358;50.356;12.456;2023-02-04T04:02:20;96489;;;0.7;96.1
56558;BME280;43358;50.356;12.456;2023-02-04T04:03:22;96491;;;0.7;96
56558;BME280;43358;50.356;12.456;2023-02-04T04:04:25;96482;;;0.7;95.1
56558;BME280;43358;50.356;12.456;2023-02-04T04:05:27;96478;;;0.7;94.4
56558;BME280;43358;50.356;12.456;2023-02-04T04:06:29;96486;;;0.7;94.3
56558;BME280;43358;50.356;12.456;2023-02-04T04:07:31;96475;;;0.7;94.7
56558;BME280;43358;50.356;12.456;2023-02-04T04:08:33;96484;;;0.7;95
56558;BME280;43358;50.356;12.456;2023-02-04T04:09:35;96478;;;0.6;94.9
56558;BME280;43358;50.356;12.456;2023-02-04T04:10:37;96473;;;0.7;95.3
56558;BME280;43358;50.356;12.456;2023-02-04T04:11:39;96487;;;0.6;95.4
56558;BME280;43358;50.356;12.456;2023-02-04T04:12:41;96491;;;0.6;95.2
56558;BME280;43358;50.356;12.456;2023-02-04T04:13:45;96487;;;0.6;95
56558;BME280;43358;50.356;12.456;2023-02-04T04:14:48;96492;;;0.6;95.1
56558;BME280;43358;50.356;12.456;2023-02-04T04:15:50;96493;;;0.6;95.5
56558;BME280;43358;50.356;12.456;2023-02-04T04:16:52;96498;;;0.6;95.1
56558;BME280;43358;50.356;12.456;2023-02-04T04:17:54;96504;;;0.5;94.8
56558;BME280;43358;50.356;12.456;2023-02-04T04:18:57;96513;;;0.6;94.5
56558;BME280;43358;50.356;12.456;2023-02-04T04:19:59;96524;;;0.5;94.1
56558;BME280;43358;50.356;12.456;2023-02-04T04:21:21;96521;;;0.5;94.9
56558;BME280;43358;50.356;12.456;2023-02-04T04:23:21;96528;;;0.5;93.9
56558;BME280;43358;50.356;12.456;2023-02-04T04:24:21;96519;;;0.5;93.6
56558;BME280;43358;50.356;12.456;2023-02-04T04:25:21;96520;;;0.5;92.7
56558;BME280;43358;50.356;12.456;2023-02-04T04:26:21;96526;;;0.5;92.7
56558;BME280;43358;50.356;12.456;2023-02-04T04:27:21;96526;;;0.5;93.2
56558;BME280;43358;50.356;12.456;2023-02-04T04:28:21;96536;;;0.5;93.8
56558;BME280;43358;50.356;12.456;2023-02-04T04:29:21;96532;;;0.5;93.9
56558;BME280;43358;50.356;12.456;2023-02-04T04:30:21;96536;;;0.5;93.6
56558;BME280;43358;50.356;12.456;2023-02-04T04:31:22;96545;;;0.5;93.4
56558;BME280;43358;50.356;12.456;2023-02-04T04:32:24;96544;;;0.4;93.8
56558;BME280;43358;50.356;12.456;2023-02-04T04:33:26;96538;;;0.5;93.7
56558;BME280;43358;50.356;12.456;2023-02-04T04:34:28;96546;;;0.4;93.9
56558;BME280;43358;50.356;12.456;2023-02-04T04:35:30;96534;;;0.4;93.8
56558;BME280;43358;50.356;12.456;2023-02-04T04:36:32;96542;;;0.4;93.5
56558;BME280;43358;50.356;12.456;2023-02-04T04:37:35;96546;;;0.4;94
56558;BME280;43358;50.356;12.456;2023-02-04T04:38:37;96544;;;0.4;94
56558;BME280;43358;50.356;12.456;2023-02-04T04:39:39;96545;;;0.4;93.6
56558;BME280;43358;50.356;12.456;2023-02-04T04:40:41;96546;;;0.4;94
56558;BME280;43358;50.356;12.456;2023-02-04T04:41:43;96546;;;0.4;93.6
56558;BME280;43358;50.356;12.456;2023-02-04T04:42:45;96562;;;0.4;94.1
56558;BME280;43358;50.356;12.456;2023-02-04T04:43:48;96554;;;0.4;94
56558;BME280;43358;50.356;12.456;2023-02-04T04:44:50;96557;;;0.5;93.3
56558;BME280;43358;50.356;12.456;2023-02-04T04:45:52;96564;;;0.4;92.8
56558;BME280;43358;50.356;12.456;2023-02-04T04:46:54;96569;;;0.4;92.9
56558;BME280;43358;50.356;12.456;2023-02-04T04:47:56;96570;;;0.4;93.8
56558;BME280;43358;50.356;12.456;2023-02-04T04:48:58;96579;;;0.4;94.4
56558;BME280;43358;50.356;12.456;2023-02-04T04:50:00;96577;;;0.4;94.6
56558;BME280;43358;50.356;12.456;2023-02-04T04:51:02;96573;;;0.4;94.9
56558;BME280;43358;50.356;12.456;2023-02-04T04:52:04;96581;;;0.4;94.2
56558;BME280;43358;50.356;12.456;2023-02-04T04:53:06;96585;;;0.4;94.2
56558;BME280;43358;50.356;12.456;2023-02-04T04:54:08;96590;;;0.4;94.6
56558;BME280;43358;50.356;12.456;2023-02-04T04:55:11;96590;;;0.4;95.4
56558;BME280;43358;50.356;12.456;2023-02-04T04:56:13;96588;;;0.4;95.5
56558;BME280;43358;50.356;12.456;2023-02-04T04:57:15;96607;;;0.4;95
56558;BME280;43358;50.356;12.456;2023-02-04T04:58:18;96601;;;0.4;94.4
56558;BME280;43358;50.356;12.456;2023-02-04T04:59:20;96602;;;0.4;93.8
56558;BME280;43358;50.356;12.456;2023-02-04T05:02:26;96597;;;0.4;93.1
56558;BME280;43358;50.356;12.456;2023-02-04T05:03:28;96603;;;0.4;93.2
56558;BME280;43358;50.356;12.456;2023-02-04T05:04:30;96606;;;0.4;93
56558;BME280;43358;50.356;12.456;2023-02-04T05:05:32;96608;;;0.4;93.8
56558;BME280;43358;50.356;12.456;2023-02-04T05:06:35;96612;;;0.4;94
56558;BME280;43358;50.356;12.456;2023-02-04T05:07:37;96611;;;0.4;93.6
56558;BME280;43358;50.356;12.456;2023-02-04T05:08:39;96609;;;0.4;94.1
56558;BME280;43358;50.356;12.456;2023-02-04T05:09:41;96623;;;0.3;94.3
56558;BME280;43358;50.356;12.456;2023-02-04T05:10:43;96628;;;0.3;94.6
56558;BME280;43358;50.356;12.456;2023-02-04T05:11:47;96625;;;0.3;94
56558;BME280;43358;50.356;12.456;2023-02-04T05:12:50;96631;;;0.3;94.5
56558;BME280;43358;50.356;12.456;2023-02-04T05:13:52;96620;;;0.3;94.5
56558;BME280;43358;50.356;12.456;2023-02-04T05:14:54;96619;;;0.4;94.3
56558;BME280;43358;50.356;12.456;2023-02-04T05:15:56;96628;;;0.4;94.5
56558;BME280;43358;50.356;12.456;2023-02-04T05:16:58;96631;;;0.4;95.1
56558;BME280;43358;50.356;12.456;2023-02-04T05:18:00;96638;;;0.4;95.1
56558;BME280;43358;50.356;12.456;2023-02-04T05:19:02;96632;;;0.3;95
56558;BME280;43358;50.356;12.456;2023-02-04T05:20:04;96651;;;0.3;95.2
56558;BME280;43358;50.356;12.456;2023-02-04T05:21:06;96651;;;0.3;95.4
56558;BME280;43358;50.356;12.456;2023-02-04T05:22:08;96650;;;0.3;95.5
56558;BME280;43358;50.356;12.456;2023-02-04T05:23:10;96651;;;0.4;95.3
56558;BME280;43358;50.356;12.456;2023-02-04T05:24:13;96648;;;0.4;95.2
56558;BME280;43358;50.356;12.456;2023-02-04T05:25:15;96664;;;0.4;94.6
56558;BME280;43358;50.356;12.456;2023-02-04T05:26:18;96660;;;0.4;93.5
56558;BME280;43358;50.356;12.456;2023-02-04T05:27:20;96667;;;0.4;93.3
56558;BME280;43358;50.356;12.456;2023-02-04T05:28:22;96666;;;0.4;93.5
56558;BME280;43358;50.356;12.456;2023-02-04T05:29:25;96672;;;0.4;94
56558;BME280;43358;50.356;12.456;2023-02-04T05:30:27;96669;;;0.4;93.1
56558;BME280;43358;50.356;12.456;2023-02-04T05:31:29;96673;;;0.4;93.6
56558;BME280;43358;50.356;12.456;2023-02-04T05:32:31;96677;;;0.4;93.9
56558;BME280;43358;50.356;12.456;2023-02-04T05:33:33;96684;;;0.4;93.8
56558;BME280;43358;50.356;12.456;2023-02-04T05:34:36;96688;;;0.4;93
56558;BME280;43358;50.356;12.456;2023-02-04T05:35:39;96692;;;0.3;93.4
56558;BME280;43358;50.356;12.456;2023-02-04T05:36:41;96684;;;0.4;93.9
56558;BME280;43358;50.356;12.456;2023-02-04T05:37:43;96685;;;0.4;93.3
56558;BME280;43358;50.356;12.456;2023-02-04T05:38:45;96681;;;0.4;92.9
56558;BME280;43358;50.356;12.456;2023-02-04T05:39:48;96691;;;0.3;93
56558;BME280;43358;50.356;12.456;2023-02-04T05:40:50;96692;;;0.4;93.1
56558;BME280;43358;50.356;12.456;2023-02-04T05:41:52;96703;;;0.3;92.9
56558;BME280;43358;50.356;12.456;2023-02-04T05:42:54;96693;;;0.4;92.8
56558;BME280;43358;50.356;12.456;2023-02-04T05:43:57;96706;;;0.4;92.7
56558;BME280;43358;50.356;12.456;2023-02-04T05:44:59;96705;;;0.4;92.8
56558;BME280;43358;50.356;12.456;2023-02-04T05:46:01;96709;;;0.4;92.9
56558;BME280;43358;50.356;12.456;2023-02-04T05:47:04;96723;;;0.4;93.2
56558;BME280;43358;50.356;12.456;2023-02-04T05:48:06;96716;;;0.4;93
56558;BME280;43358;50.356;12.456;2023-02-04T05:49:08;96712;;;0.3;93.3
56558;BME280;43358;50.356;12.456;2023-02-04T05:50:11;96725;;;0.3;93.2
56558;BME280;43358;50.356;12.456;2023-02-04T05:51:13;96723;;;0.4;93.3
56558;BME280;43358;50.356;12.456;2023-02-04T05:52:16;96734;;;0.3;93.2
56558;BME280;43358;50.356;12.456;2023-02-04T05:54:20;96736;;;0.3;93.3
56558;BME280;43358;50.356;12.456;2023-02-04T05:55:23;96735;;;0.3;92.6
56558;BME280;43358;50.356;12.456;2023-02-04T05:56:25;96740;;;0.3;91.9
56558;BME280;43358;50.356;12.456;2023-02-04T05:57:28;96747;;;0.3;91.8
56558;BME280;43358;50.356;12.456;2023-02-04T05:58:30;96753;;;0.4;93.9
56558;BME280;43358;50.356;12.456;2023-02-04T05:59:33;96754;;;0.4;93.1
56558;BME280;43358;50.356;12.456;2023-02-04T06:00:35;96753;;;0.3;92.9
56558;BME280;43358;50.356;12.456;2023-02-04T06:01:37;96753;;;0.3;92.4
56558;BME280;43358;50.356;12.456;2023-02-04T06:02:39;96753;;;0.2;92.5
56558;BME280;43358;50.356;12.456;2023-02-04T06:03:41;96751;;;0.2;93
56558;BME280;43358;50.356;12.456;2023-02-04T06:04:45;96757;;;0.3;91.7
56558;BME280;43358;50.356;12.456;2023-02-04T06:05:48;96760;;;0.3;90.2
56558;BME280;43358;50.356;12.456;2023-02-04T06:06:50;96764;;;0.3;90.2
56558;BME280;43358;50.356;12.456;2023-02-04T06:07:52;96766;;;0.3;90.2
56558;BME280;43358;50.356;12.456;2023-02-04T06:08:54;96761;;;0.3;90.2
56558;BME280;43358;50.356;12.456;2023-02-04T06:09:57;96764;;;0.3;90.8
56558;BME280;43358;50.356;12.456;2023-02-04T06:10:59;96766;;;0.2;91.5
56558;BME280;43358;50.356;12.456;2023-02-04T06:12:01;96771;;;0.2;92.3
56558;BME280;43358;50.356;12.456;2023-02-04T06:13:03;96787;;;0.2;92.5